createdAt,value
2018-01-15T00:00:25.296Z,72.60
2018-01-15T00:02:57.428Z,72.28
2018-01-15T00:05:25.730Z,72.24
2018-01-15T00:07:57.383Z,71.97
2018-01-15T00:10:25.782Z,71.54
2018-01-15T00:12:55.897Z,71.33
2018-01-15T00:15:24.209Z,71.44
2018-01-15T00:17:55.592Z,71.24
2018-01-15T00:20:24.078Z,71.19
2018-01-15T00:22:57.013Z,71.13
2018-01-15T00:25:25.315Z,70.81
2018-01-15T00:27:56.827Z,71.38
2018-01-15T00:30:25.117Z,71.55
2018-01-15T00:32:56.748Z,71.28
2018-01-15T00:35:25.184Z,71.20
2018-01-15T00:37:57.323Z,71.71
2018-01-15T00:40:25.631Z,71.00
2018-01-15T00:42:57.776Z,70.72
2018-01-15T00:45:26.088Z,71.20
2018-01-15T00:47:56.204Z,71.29
2018-01-15T00:50:24.489Z,71.72
2018-01-15T00:52:58.463Z,71.36
2018-01-15T00:55:26.747Z,71.57
2018-01-15T00:57:56.667Z,71.46
2018-01-15T01:00:24.967Z,71.29
2018-01-15T01:02:56.997Z,71.50
2018-01-15T01:05:25.309Z,71.67
2018-01-15T01:07:57.649Z,71.46
2018-01-15T01:10:25.969Z,71.40
2018-01-15T01:12:55.783Z,71.95
2018-01-15T01:15:24.111Z,71.77
2018-01-15T01:17:59.481Z,71.46
2018-01-15T01:20:27.772Z,71.71
2018-01-15T01:22:56.156Z,71.34
2018-01-15T01:25:24.475Z,71.62
2018-01-15T01:27:56.480Z,71.86
2018-01-15T01:30:25.040Z,71.81
2018-01-15T01:32:56.674Z,71.64
2018-01-15T01:35:24.984Z,71.37
2018-01-15T01:37:56.116Z,71.24
2018-01-15T01:40:24.592Z,71.18
2018-01-15T01:42:56.700Z,71.37
2018-01-15T01:45:25.245Z,71.50
2018-01-15T01:47:56.540Z,71.39
2018-01-15T01:50:25.168Z,72.23
2018-01-15T01:52:58.317Z,71.37
2018-01-15T01:55:26.618Z,71.03
2018-01-15T01:57:57.519Z,70.88
2018-01-15T02:00:25.816Z,71.18
2018-01-15T02:02:55.812Z,70.93
2018-01-15T02:05:24.452Z,71.26
2018-01-15T02:07:55.835Z,70.72
2018-01-15T02:10:24.116Z,70.65
2018-01-15T02:12:56.240Z,70.93
2018-01-15T02:15:24.530Z,71.56
2018-01-15T02:17:56.005Z,71.41
2018-01-15T02:20:25.573Z,71.02
2018-01-15T02:22:57.505Z,71.22
2018-01-15T02:25:25.781Z,71.41
2018-01-15T02:27:55.829Z,70.90
2018-01-15T02:30:24.117Z,70.88
2018-01-15T02:32:55.695Z,70.65
2018-01-15T02:35:24.008Z,70.60
2018-01-15T02:37:59.398Z,70.65
2018-01-15T02:40:27.692Z,70.89
2018-01-15T02:42:56.941Z,70.54
2018-01-15T02:45:25.230Z,70.58
2018-01-15T02:47:57.372Z,70.46
2018-01-15T02:50:25.652Z,70.57
2018-01-15T02:52:56.926Z,70.47
2018-01-15T02:55:25.437Z,70.63
2018-01-15T02:57:56.644Z,70.65
2018-01-15T03:00:26.036Z,70.70
2018-01-15T03:02:56.445Z,70.65
2018-01-15T03:05:25.595Z,70.62
2018-01-15T03:07:58.185Z,70.25
2018-01-15T03:10:28.632Z,70.81
2018-01-15T03:12:57.737Z,71.17
2018-01-15T03:15:27.015Z,70.57
2018-01-15T03:17:56.914Z,70.59
2018-01-15T03:20:26.082Z,70.92
2018-01-15T03:22:56.471Z,70.58
2018-01-15T03:25:26.306Z,70.30
2018-01-15T03:27:57.713Z,70.82
2018-01-15T03:30:27.903Z,70.31
2018-01-15T03:32:57.110Z,70.47
2018-01-15T03:35:25.806Z,70.52
2018-01-15T03:37:56.124Z,70.67
2018-01-15T03:40:24.431Z,70.70
2018-01-15T03:42:56.345Z,70.55
2018-01-15T03:45:24.656Z,70.64
2018-01-15T03:47:55.823Z,70.54
2018-01-15T03:50:24.100Z,70.43
2018-01-15T03:52:59.594Z,70.52
2018-01-15T03:55:27.859Z,70.68
2018-01-15T03:57:56.176Z,71.10
2018-01-15T04:00:24.476Z,71.32
2018-01-15T04:02:56.073Z,71.46
2018-01-15T04:05:24.371Z,71.59
2018-01-15T04:07:55.973Z,71.61
2018-01-15T04:10:24.272Z,71.60
2018-01-15T04:12:59.288Z,72.02
2018-01-15T04:15:28.067Z,71.92
2018-01-15T04:17:56.358Z,71.66
2018-01-15T04:20:24.626Z,71.97
2018-01-15T04:22:56.994Z,71.82
2018-01-15T04:25:25.292Z,71.51
2018-01-15T04:27:57.159Z,71.56
2018-01-15T04:30:25.778Z,71.93
2018-01-15T04:32:55.841Z,71.97
2018-01-15T04:35:24.151Z,71.65
2018-01-15T04:37:55.623Z,71.56
2018-01-15T04:40:23.932Z,72.00
2018-01-15T04:42:55.476Z,72.69
2018-01-15T04:45:24.024Z,72.25
2018-01-15T04:47:58.016Z,72.11
2018-01-15T04:50:26.327Z,72.05
2018-01-15T04:52:56.345Z,72.40
2018-01-15T04:55:25.134Z,72.82
2018-01-15T04:57:57.288Z,72.59
2018-01-15T05:00:25.569Z,72.61
2018-01-15T05:02:56.998Z,73.71
2018-01-15T05:05:25.319Z,73.32
2018-01-15T05:07:56.687Z,72.82
2018-01-15T05:10:24.985Z,72.76
2018-01-15T05:12:55.823Z,72.84
2018-01-15T05:15:24.122Z,72.90
2018-01-15T05:17:56.365Z,73.14
2018-01-15T05:20:24.693Z,73.54
2018-01-15T05:22:56.136Z,73.51
2018-01-15T05:25:24.510Z,73.61
2018-01-15T05:27:58.959Z,73.84
2018-01-15T05:30:27.290Z,73.95
2018-01-15T05:32:56.642Z,73.89
2018-01-15T05:35:24.925Z,74.28
2018-01-15T05:37:55.882Z,74.28
2018-01-15T05:40:24.165Z,74.25
2018-01-15T05:42:55.924Z,74.54
2018-01-15T05:45:24.220Z,74.42
2018-01-15T05:48:00.226Z,74.74
2018-01-15T05:50:28.521Z,74.35
2018-01-15T05:53:01.458Z,74.43
2018-01-15T05:55:29.827Z,74.81
2018-01-15T05:57:58.110Z,74.37
2018-01-15T06:00:26.798Z,74.26
2018-01-15T06:02:58.214Z,74.37
2018-01-15T06:05:26.957Z,74.69
2018-01-15T06:07:56.387Z,74.59
2018-01-15T06:10:24.711Z,74.46
2018-01-15T06:12:58.668Z,74.74
2018-01-15T06:15:26.979Z,74.52
2018-01-15T06:17:56.929Z,74.62
2018-01-15T06:20:25.932Z,74.59
2018-01-15T06:22:58.564Z,74.72
2018-01-15T06:25:26.900Z,75.15
2018-01-15T06:27:56.905Z,75.17
2018-01-15T06:30:25.169Z,75.12
2018-01-15T06:32:56.823Z,75.30
2018-01-15T06:35:25.133Z,75.57
2018-01-15T06:37:59.222Z,75.82
2018-01-15T06:40:27.671Z,75.80
2018-01-15T06:42:56.101Z,75.50
2018-01-15T06:45:28.320Z,75.89
2018-01-15T06:47:56.622Z,75.53
2018-01-15T06:50:24.932Z,75.52
2018-01-15T06:52:56.261Z,75.98
2018-01-15T06:55:24.911Z,75.81
2018-01-15T06:57:56.833Z,75.90
2018-01-15T07:00:25.389Z,76.03
2018-01-15T07:02:57.231Z,76.02
2018-01-15T07:05:25.558Z,76.75
2018-01-15T07:07:56.913Z,76.33
2018-01-15T07:10:25.317Z,76.19
2018-01-15T07:12:56.532Z,76.44
2018-01-15T07:15:25.038Z,76.39
2018-01-15T07:17:57.177Z,76.18
2018-01-15T07:20:26.085Z,76.32
2018-01-15T07:22:57.508Z,76.42
2018-01-15T07:25:25.827Z,76.64
2018-01-15T07:27:57.779Z,76.42
2018-01-15T07:30:26.068Z,76.49
2018-01-15T07:32:58.332Z,76.47
2018-01-15T07:35:26.806Z,76.20
2018-01-15T07:37:56.287Z,76.29
2018-01-15T07:40:24.596Z,76.56
2018-01-15T07:42:58.658Z,76.46
2018-01-15T07:45:26.960Z,76.26
2018-01-15T07:47:56.479Z,76.40
2018-01-15T07:50:24.794Z,76.40
2018-01-15T07:52:56.142Z,76.22
2018-01-15T07:55:24.440Z,76.28
2018-01-15T07:57:56.648Z,76.27
2018-01-15T08:00:24.961Z,76.17
2018-01-15T08:02:57.116Z,76.03
2018-01-15T08:05:25.410Z,76.03
2018-01-15T08:07:56.756Z,75.91
2018-01-15T08:10:25.060Z,76.38
2018-01-15T08:12:57.556Z,75.90
2018-01-15T08:15:25.834Z,75.64
2018-01-15T08:17:57.985Z,75.43
2018-01-15T08:20:26.919Z,75.28
2018-01-15T08:22:56.968Z,75.22
2018-01-15T08:25:25.262Z,75.25
2018-01-15T08:27:56.760Z,75.42
2018-01-15T08:30:26.072Z,74.76
2018-01-15T08:32:58.032Z,74.57
2018-01-15T08:35:26.385Z,75.01
2018-01-15T08:37:57.815Z,75.48
2018-01-15T08:40:26.518Z,74.87
2018-01-15T08:42:56.368Z,75.22
2018-01-15T08:45:24.674Z,74.46
2018-01-15T08:47:58.895Z,74.43
2018-01-15T08:50:27.476Z,73.91
2018-01-15T08:52:56.896Z,73.86
2018-01-15T08:55:25.192Z,74.68
2018-01-15T08:57:56.197Z,75.58
2018-01-15T09:00:24.612Z,74.86
2018-01-15T09:02:56.168Z,74.93
2018-01-15T09:05:24.476Z,74.54
2018-01-15T09:07:58.424Z,74.34
2018-01-15T09:10:26.784Z,74.30
2018-01-15T09:12:56.948Z,74.38
2018-01-15T09:15:25.385Z,74.70
2018-01-15T09:17:56.953Z,74.31
2018-01-15T09:20:25.271Z,74.44
2018-01-15T09:22:56.265Z,73.68
2018-01-15T09:25:24.721Z,74.28
2018-01-15T09:27:56.866Z,73.21
2018-01-15T09:30:25.177Z,73.04
2018-01-15T09:32:57.272Z,73.12
2018-01-15T09:35:25.535Z,73.16
2018-01-15T09:37:57.026Z,72.81
2018-01-15T09:40:25.626Z,71.51
2018-01-15T09:42:57.850Z,70.70
2018-01-15T09:45:26.141Z,70.07
2018-01-15T09:47:56.208Z,70.12
2018-01-15T09:50:24.492Z,69.82
2018-01-15T09:52:55.892Z,69.42
2018-01-15T09:55:24.168Z,68.41
2018-01-15T09:57:56.169Z,67.36
2018-01-15T10:00:24.460Z,65.94
2018-01-15T10:02:55.807Z,66.11
2018-01-15T10:05:24.123Z,67.28
2018-01-15T10:07:59.513Z,69.27
2018-01-15T10:10:27.810Z,68.97
2018-01-15T10:12:56.115Z,70.88
2018-01-15T10:15:24.441Z,71.67
2018-01-15T10:17:59.464Z,70.69
2018-01-15T10:20:27.747Z,70.65
2018-01-15T10:22:56.017Z,71.51
2018-01-15T10:25:24.351Z,71.53
2018-01-15T10:27:56.187Z,71.45
2018-01-15T10:30:24.522Z,71.38
2018-01-15T10:32:55.995Z,71.97
2018-01-15T10:35:24.296Z,71.89
2018-01-15T10:37:56.024Z,71.64
2018-01-15T10:40:24.312Z,72.63
2018-01-15T10:42:57.184Z,72.06
2018-01-15T10:45:25.552Z,71.31
2018-01-15T10:47:56.953Z,72.28
2018-01-15T10:50:25.256Z,72.49
2018-01-15T10:52:56.702Z,72.33
2018-01-15T10:55:25.890Z,72.96
2018-01-15T10:57:57.985Z,73.11
2018-01-15T11:00:31.993Z,73.14
2018-01-15T11:03:00.274Z,73.04
2018-01-15T11:05:29.158Z,72.90
2018-01-15T11:07:57.576Z,73.30
2018-01-15T11:10:25.890Z,73.49
2018-01-15T11:12:55.915Z,73.72
2018-01-15T11:15:24.456Z,74.23
2018-01-15T11:17:55.337Z,74.15
2018-01-15T11:20:23.627Z,74.56
2018-01-15T11:22:55.588Z,74.91
2018-01-15T11:25:23.876Z,75.02
2018-01-15T11:27:55.368Z,75.03
2018-01-15T11:30:23.665Z,75.12
2018-01-15T11:32:55.657Z,74.84
2018-01-15T11:35:23.935Z,73.87
2018-01-15T11:37:55.360Z,74.05
2018-01-15T11:40:24.151Z,73.95
2018-01-15T11:42:56.060Z,74.05
2018-01-15T11:45:24.381Z,74.17
2018-01-15T11:47:56.384Z,74.03
2018-01-15T11:50:24.663Z,74.00
2018-01-15T11:52:56.812Z,73.66
2018-01-15T11:55:25.617Z,73.68
2018-01-15T11:57:55.640Z,73.12
2018-01-15T12:00:23.940Z,73.32
2018-01-15T12:02:56.065Z,73.44
2018-01-15T12:05:24.368Z,73.72
2018-01-15T12:07:55.719Z,73.56
2018-01-15T12:10:24.032Z,73.71
2018-01-15T12:12:58.129Z,73.76
2018-01-15T12:15:26.468Z,73.49
2018-01-15T12:17:56.293Z,73.71
2018-01-15T12:20:24.581Z,73.39
2018-01-15T12:22:56.106Z,73.33
2018-01-15T12:25:24.487Z,73.13
2018-01-15T12:27:55.402Z,73.01
2018-01-15T12:30:23.701Z,72.52
2018-01-15T12:32:55.572Z,72.54
2018-01-15T12:35:23.867Z,72.59
2018-01-15T12:37:55.641Z,72.32
2018-01-15T12:40:23.962Z,72.08
2018-01-15T12:42:57.901Z,72.11
2018-01-15T12:45:26.240Z,72.00
2018-01-15T12:47:56.471Z,71.90
2018-01-15T12:50:24.757Z,71.73
2018-01-15T12:52:56.964Z,71.54
2018-01-15T12:55:25.508Z,71.43
2018-01-15T12:57:55.419Z,71.39
2018-01-15T13:00:23.708Z,71.02
2018-01-15T13:02:55.161Z,71.22
2018-01-15T13:05:35.200Z,70.97
2018-01-15T13:08:06.339Z,71.24
2018-01-15T13:10:34.600Z,71.21
2018-01-15T13:13:02.890Z,70.67
2018-01-15T13:15:31.168Z,70.79
2018-01-15T13:18:00.047Z,70.67
2018-01-15T13:20:28.622Z,71.01
2018-01-15T13:22:56.892Z,71.23
2018-01-15T13:25:25.170Z,71.36
2018-01-15T13:27:57.060Z,70.94
2018-01-15T13:30:25.374Z,71.31
2018-01-15T13:32:56.682Z,71.53
2018-01-15T13:35:25.097Z,71.73
2018-01-15T13:37:57.014Z,71.90
2018-01-15T13:40:25.322Z,71.91
2018-01-15T13:42:56.656Z,71.85
2018-01-15T13:45:24.939Z,71.76
2018-01-15T13:47:56.146Z,71.53
2018-01-15T13:50:24.424Z,71.26
2018-01-15T13:52:56.041Z,71.43
2018-01-15T13:55:24.306Z,71.00
2018-01-15T13:57:55.411Z,71.33
2018-01-15T14:00:23.684Z,71.70
2018-01-15T14:02:55.129Z,71.52
2018-01-15T14:05:23.408Z,72.32
2018-01-15T14:07:54.819Z,72.63
2018-01-15T14:10:23.102Z,71.74
2018-01-15T14:12:57.857Z,70.92
2018-01-15T14:15:26.143Z,72.14
2018-01-15T14:17:55.717Z,72.11
2018-01-15T14:20:24.126Z,73.93
2018-01-15T14:22:56.256Z,74.78
2018-01-15T14:25:24.776Z,74.34
2018-01-15T14:27:57.075Z,75.41
2018-01-15T14:30:25.438Z,75.49
2018-01-15T14:32:55.647Z,74.75
2018-01-15T14:35:23.951Z,75.62
2018-01-15T14:37:55.633Z,77.78
2018-01-15T14:40:23.910Z,75.94
2018-01-15T14:42:55.508Z,75.19
2018-01-15T14:45:23.780Z,76.57
2018-01-15T14:47:55.572Z,75.70
2018-01-15T14:50:23.974Z,76.73
2018-01-15T14:52:56.060Z,75.03
2018-01-15T14:55:24.553Z,75.47
2018-01-15T14:57:57.263Z,74.80
2018-01-15T15:00:25.557Z,76.59
2018-01-15T15:02:55.323Z,74.25
2018-01-15T15:05:23.658Z,73.37
2018-01-15T15:07:55.376Z,74.04
2018-01-15T15:10:23.660Z,73.59
2018-01-15T15:12:55.199Z,74.42
2018-01-15T15:15:23.672Z,74.73
2018-01-15T15:17:55.201Z,74.21
2018-01-15T15:20:23.519Z,74.52
2018-01-15T15:22:54.813Z,74.93
2018-01-15T15:25:23.153Z,75.34
2018-01-15T15:27:57.767Z,76.39
2018-01-15T15:30:26.071Z,76.24
2018-01-15T15:32:55.394Z,74.69
2018-01-15T15:35:23.659Z,75.05
2018-01-15T15:37:55.094Z,75.01
2018-01-15T15:40:23.824Z,74.67
2018-01-15T15:42:55.516Z,74.82
2018-01-15T15:45:23.809Z,74.27
2018-01-15T15:47:55.638Z,74.11
2018-01-15T15:50:23.910Z,74.38
2018-01-15T15:52:55.260Z,74.22
2018-01-15T15:55:23.516Z,74.83
2018-01-15T15:57:58.566Z,74.39
2018-01-15T16:00:26.841Z,73.99
2018-01-15T16:02:55.548Z,73.82
2018-01-15T16:05:23.838Z,74.12
2018-01-15T16:07:55.610Z,74.39
2018-01-15T16:10:23.890Z,73.54
2018-01-15T16:12:55.770Z,73.09
2018-01-15T16:15:24.841Z,72.87
2018-01-15T16:17:56.790Z,72.42
2018-01-15T16:20:25.071Z,72.57
2018-01-15T16:22:59.102Z,72.45
2018-01-15T16:25:27.416Z,72.42
2018-01-15T16:27:55.696Z,72.14
2018-01-15T16:30:23.997Z,71.50
2018-01-15T16:32:55.396Z,71.62
2018-01-15T16:35:23.673Z,71.40
2018-01-15T16:37:55.076Z,70.81
2018-01-15T16:40:23.415Z,70.36
2018-01-15T16:42:55.302Z,70.19
2018-01-15T16:45:23.601Z,71.00
2018-01-15T16:47:55.145Z,71.42
2018-01-15T16:50:26.696Z,71.72
2018-01-15T16:52:56.305Z,71.59
2018-01-15T16:55:24.844Z,71.39
2018-01-15T16:57:56.840Z,71.31
2018-01-15T17:00:25.139Z,71.75
2018-01-15T17:02:56.564Z,71.96
2018-01-15T17:05:25.060Z,71.18
2018-01-15T17:07:56.277Z,71.80
2018-01-15T17:10:24.824Z,71.97
2018-01-15T17:12:57.395Z,72.49
2018-01-15T17:15:25.888Z,73.01
2018-01-15T17:17:56.560Z,72.90
2018-01-15T17:20:24.834Z,73.03
2018-01-15T17:22:56.079Z,73.66
2018-01-15T17:25:24.572Z,73.62
2018-01-15T17:27:55.690Z,73.80
2018-01-15T17:30:23.988Z,74.26
2018-01-15T17:32:55.810Z,73.94
2018-01-15T17:35:24.078Z,74.10
2018-01-15T17:37:55.491Z,73.34
2018-01-15T17:40:23.756Z,73.82
2018-01-15T17:42:55.046Z,74.43
2018-01-15T17:45:23.309Z,74.28
2018-01-15T17:47:58.079Z,74.92
2018-01-15T17:50:26.440Z,74.92
2018-01-15T17:52:56.454Z,74.91
2018-01-15T17:55:24.743Z,75.12
2018-01-15T17:57:56.868Z,75.13
2018-01-15T18:00:25.195Z,76.09
2018-01-15T18:02:57.197Z,76.06
2018-01-15T18:05:25.482Z,77.33
2018-01-15T18:07:56.778Z,77.03
2018-01-15T18:10:25.902Z,75.88
2018-01-15T18:12:57.836Z,76.53
2018-01-15T18:15:26.180Z,76.01
2018-01-15T18:17:57.363Z,75.98
2018-01-15T18:20:25.656Z,75.77
2018-01-15T18:22:55.731Z,75.44
2018-01-15T18:25:24.028Z,75.77
2018-01-15T18:27:55.581Z,75.23
2018-01-15T18:30:23.841Z,75.49
2018-01-15T18:32:58.901Z,75.53
2018-01-15T18:35:27.184Z,74.52
2018-01-15T18:37:57.373Z,74.83
2018-01-15T18:40:25.824Z,74.95
2018-01-15T18:42:57.318Z,74.34
2018-01-15T18:45:25.837Z,73.92
2018-01-15T18:47:55.832Z,72.59
2018-01-15T18:50:24.095Z,73.20
2018-01-15T18:52:55.783Z,73.11
2018-01-15T18:55:24.593Z,73.07
2018-01-15T18:57:56.893Z,73.17
2018-01-15T19:00:25.161Z,72.81
2018-01-15T19:02:57.256Z,71.91
2018-01-15T19:05:25.543Z,72.23
2018-01-15T19:07:56.748Z,71.51
2018-01-15T19:10:25.007Z,71.42
2018-01-15T19:12:57.016Z,71.26
2018-01-15T19:15:25.464Z,71.43
2018-01-15T19:17:57.339Z,70.66
2018-01-15T19:20:25.657Z,71.28
2018-01-15T19:22:55.645Z,71.51
2018-01-15T19:25:23.986Z,71.44
2018-01-15T19:27:59.226Z,70.99
2018-01-15T19:30:27.482Z,70.55
2018-01-15T19:32:55.788Z,71.31
2018-01-15T19:38:33.225Z,70.44
2018-01-15T19:41:01.494Z,70.38
2018-01-15T19:43:30.010Z,70.11
2018-01-15T19:46:03.921Z,69.75
2018-01-15T19:48:37.701Z,70.11
2018-01-15T19:51:11.460Z,69.58
2018-01-15T19:53:46.099Z,69.53
2018-01-15T19:56:20.069Z,69.58
2018-01-15T19:58:53.877Z,69.63
2018-01-15T20:01:27.836Z,69.43
2018-01-15T20:04:01.680Z,69.86
2018-01-15T20:06:35.436Z,69.72
2018-01-15T20:09:09.140Z,69.92
2018-01-15T20:11:37.444Z,70.08
2018-01-15T20:14:05.724Z,69.21
2018-01-15T20:16:35.296Z,69.73
2018-01-15T20:19:03.554Z,69.55
2018-01-15T20:21:31.879Z,69.47
2018-01-15T20:24:00.106Z,69.58
2018-01-15T20:26:28.577Z,69.77
2018-01-15T20:28:56.840Z,69.65
2018-01-15T20:31:25.097Z,69.90
2018-01-15T20:33:53.390Z,69.90
2018-01-15T20:36:21.643Z,69.71
2018-01-15T20:38:49.945Z,69.72
2018-01-15T20:41:18.201Z,69.72
2018-01-15T20:43:46.521Z,70.17
2018-01-15T20:46:14.770Z,70.35
2018-01-15T20:48:43.053Z,70.62
2018-01-15T20:51:11.438Z,70.77
2018-01-15T20:53:39.726Z,71.03
2018-01-15T20:56:08.044Z,70.70
2018-01-15T20:58:36.650Z,70.67
2018-01-15T21:01:04.884Z,70.59
2018-01-15T21:03:33.168Z,71.75
2018-01-15T21:06:01.432Z,72.60
2018-01-15T21:08:29.706Z,73.67
2018-01-15T21:10:57.964Z,74.57
2018-01-15T21:13:26.238Z,74.53
2018-01-15T21:15:54.520Z,74.87
2018-01-15T21:18:22.919Z,76.18
2018-01-15T21:20:51.169Z,76.35
2018-01-15T21:23:19.419Z,75.94
2018-01-15T21:25:47.994Z,76.20
2018-01-15T21:28:16.304Z,76.15
2018-01-15T21:30:44.602Z,76.94
2018-01-15T21:33:12.897Z,77.62
2018-01-15T21:35:41.175Z,76.93
2018-01-15T21:38:09.448Z,76.34
2018-01-15T21:40:38.183Z,77.21
2018-01-15T21:43:06.434Z,76.87
2018-01-15T21:45:35.215Z,77.25
2018-01-15T21:48:03.503Z,77.46
2018-01-15T21:50:32.061Z,76.80
2018-01-15T21:53:00.331Z,76.90
2018-01-15T21:55:28.775Z,77.54
2018-01-15T21:57:57.053Z,77.71
2018-01-15T22:00:25.321Z,78.11
2018-01-15T22:02:55.042Z,78.13
2018-01-15T22:05:23.312Z,77.54
2018-01-15T22:07:55.077Z,77.53
2018-01-15T22:10:23.354Z,77.45
2018-01-15T22:12:55.251Z,77.14
2018-01-15T22:15:23.540Z,77.39
2018-01-15T22:17:55.249Z,77.54
2018-01-15T22:20:23.818Z,77.57
2018-01-15T22:22:55.373Z,77.63
2018-01-15T22:25:23.652Z,77.68
2018-01-15T22:27:54.948Z,77.80
2018-01-15T22:30:23.246Z,78.04
2018-01-15T22:32:54.538Z,78.17
2018-01-15T22:35:22.812Z,78.38
2018-01-15T22:37:54.347Z,78.15
2018-01-15T22:40:22.636Z,78.46
2018-01-15T22:42:57.828Z,78.21
2018-01-15T22:45:26.127Z,78.09
2018-01-15T22:47:55.136Z,78.37
2018-01-15T22:50:23.441Z,78.49
2018-01-15T22:52:55.536Z,78.66
2018-01-15T22:55:23.818Z,78.90
2018-01-15T22:57:55.917Z,79.41
2018-01-15T23:00:24.490Z,79.98
2018-01-15T23:02:56.396Z,79.96
2018-01-15T23:05:24.660Z,79.98
2018-01-15T23:07:55.875Z,80.04
2018-01-15T23:10:24.168Z,80.15
2018-01-15T23:12:55.540Z,80.30
2018-01-15T23:15:23.816Z,80.08
2018-01-15T23:17:54.703Z,80.24
2018-01-15T23:20:22.994Z,79.99
2018-01-15T23:22:54.503Z,80.28
2018-01-15T23:25:22.777Z,80.69
2018-01-15T23:27:57.900Z,81.15
2018-01-15T23:30:26.188Z,81.82
2018-01-15T23:32:55.259Z,83.69
2018-01-15T23:35:23.539Z,85.48
2018-01-15T23:37:55.887Z,86.12
2018-01-15T23:40:24.152Z,86.27
2018-01-15T23:42:56.196Z,86.89
2018-01-15T23:45:24.460Z,86.24
2018-01-15T23:47:56.063Z,85.76
2018-01-15T23:50:24.344Z,85.66
2018-01-15T23:52:56.593Z,85.09
2018-01-15T23:55:24.849Z,84.86
2018-01-15T23:57:55.120Z,85.11
